sensor_id;sensor_type;location;lat;lon;timestamp;temperature;humidity
72646;DHT22;60687;53.876;10.674;2024-03-02T00:01:55;9.20;99.90
72646;DHT22;60687;53.876;10.674;2024-03-02T00:11:58;9.20;99.90
72646;DHT22;60687;53.876;10.674;2024-03-02T00:22:02;9.20;99.90
72646;DHT22;60687;53.876;10.674;2024-03-02T00:32:10;9.10;99.90
72646;DHT22;60687;53.876;10.674;2024-03-02T00:42:16;9.10;99.90
72646;DHT22;60687;53.876;10.674;2024-03-02T00:52:19;9.10;99.90
72646;DHT22;60687;53.876;10.674;2024-03-02T01:02:24;9.00;99.90
72646;DHT22;60687;53.876;10.674;2024-03-02T01:12:26;9.00;99.90
72646;DHT22;60687;53.876;10.674;2024-03-02T01:22:30;9.00;99.90
72646;DHT22;60687;53.876;10.674;2024-03-02T01:32:33;8.90;99.90
72646;DHT22;60687;53.876;10.674;2024-03-02T01:42:38;8.80;99.90
72646;DHT22;60687;53.876;10.674;2024-03-02T01:52:41;8.70;99.90
72646;DHT22;60687;53.876;10.674;2024-03-02T02:02:47;8.70;99.90
72646;DHT22;60687;53.876;10.674;2024-03-02T02:12:50;8.60;99.90
72646;DHT22;60687;53.876;10.674;2024-03-02T02:22:58;8.60;99.90
72646;DHT22;60687;53.876;10.674;2024-03-02T02:33:01;8.60;99.90
72646;DHT22;60687;53.876;10.674;2024-03-02T02:43:06;8.50;99.90
72646;DHT22;60687;53.876;10.674;2024-03-02T02:53:08;8.50;99.90
72646;DHT22;60687;53.876;10.674;2024-03-02T03:03:13;8.50;99.90
72646;DHT22;60687;53.876;10.674;2024-03-02T03:13:15;8.40;99.90
72646;DHT22;60687;53.876;10.674;2024-03-02T03:23:21;8.40;99.90
72646;DHT22;60687;53.876;10.674;2024-03-02T03:33:24;8.30;99.90
72646;DHT22;60687;53.876;10.674;2024-03-02T03:43:28;8.30;99.90
72646;DHT22;60687;53.876;10.674;2024-03-02T03:53:30;8.20;99.90
72646;DHT22;60687;53.876;10.674;2024-03-02T04:03:39;8.20;99.90
72646;DHT22;60687;53.876;10.674;2024-03-02T04:13:42;8.20;99.90
72646;DHT22;60687;53.876;10.674;2024-03-02T04:23:46;8.10;99.90
72646;DHT22;60687;53.876;10.674;2024-03-02T04:33:50;8.10;99.90
72646;DHT22;60687;53.876;10.674;2024-03-02T04:43:54;8.10;99.90
72646;DHT22;60687;53.876;10.674;2024-03-02T04:53:57;8.10;99.90
72646;DHT22;60687;53.876;10.674;2024-03-02T05:04:01;8.10;99.90
72646;DHT22;60687;53.876;10.674;2024-03-02T05:14:04;8.10;99.90
72646;DHT22;60687;53.876;10.674;2024-03-02T05:24:10;8.00;99.90
72646;DHT22;60687;53.876;10.674;2024-03-02T05:34:13;8.00;99.90
72646;DHT22;60687;53.876;10.674;2024-03-02T05:44:18;7.90;99.90
72646;DHT22;60687;53.876;10.674;2024-03-02T05:54:20;7.90;99.90
72646;DHT22;60687;53.876;10.674;2024-03-02T06:04:25;7.80;99.90
72646;DHT22;60687;53.876;10.674;2024-03-02T06:14:28;7.80;99.90
72646;DHT22;60687;53.876;10.674;2024-03-02T06:24:33;7.80;99.90
72646;DHT22;60687;53.876;10.674;2024-03-02T06:34:35;7.80;99.90
72646;DHT22;60687;53.876;10.674;2024-03-02T06:44:40;7.80;99.90
72646;DHT22;60687;53.876;10.674;2024-03-02T06:54:42;7.80;99.90
72646;DHT22;60687;53.876;10.674;2024-03-02T07:04:46;7.70;99.90
72646;DHT22;60687;53.876;10.674;2024-03-02T07:14:52;7.80;99.90
72646;DHT22;60687;53.876;10.674;2024-03-02T07:25:16;7.80;99.90
72646;DHT22;60687;53.876;10.674;2024-03-02T07:35:19;7.80;99.90
72646;DHT22;60687;53.876;10.674;2024-03-02T07:45:25;7.90;99.90
72646;DHT22;60687;53.876;10.674;2024-03-02T07:55:27;7.90;99.90
72646;DHT22;60687;53.876;10.674;2024-03-02T08:05:31;8.00;99.90
72646;DHT22;60687;53.876;10.674;2024-03-02T08:15:34;8.00;99.90
72646;DHT22;60687;53.876;10.674;2024-03-02T08:25:38;8.10;99.90
72646;DHT22;60687;53.876;10.674;2024-03-02T08:35:41;8.20;99.90
72646;DHT22;60687;53.876;10.674;2024-03-02T08:45:45;8.30;99.90
72646;DHT22;60687;53.876;10.674;2024-03-02T08:55:49;8.40;99.90
72646;DHT22;60687;53.876;10.674;2024-03-02T09:05:53;8.50;99.90
72646;DHT22;60687;53.876;10.674;2024-03-02T09:15:56;8.60;99.90
72646;DHT22;60687;53.876;10.674;2024-03-02T09:25:59;8.80;99.90
72646;DHT22;60687;53.876;10.674;2024-03-02T09:36:03;8.90;99.90
72646;DHT22;60687;53.876;10.674;2024-03-02T09:46:09;9.00;99.90
72646;DHT22;60687;53.876;10.674;2024-03-02T09:56:12;9.30;99.90
72646;DHT22;60687;53.876;10.674;2024-03-02T10:06:23;9.80;99.90
72646;DHT22;60687;53.876;10.674;2024-03-02T10:16:26;10.30;99.90
72646;DHT22;60687;53.876;10.674;2024-03-02T10:26:30;10.50;99.90
72646;DHT22;60687;53.876;10.674;2024-03-02T10:36:33;10.60;97.80
72646;DHT22;60687;53.876;10.674;2024-03-02T10:46:38;10.80;97.40
72646;DHT22;60687;53.876;10.674;2024-03-02T10:56:42;10.90;95.80
72646;DHT22;60687;53.876;10.674;2024-03-02T11:06:49;11.00;95.80
72646;DHT22;60687;53.876;10.674;2024-03-02T11:16:52;11.10;94.70
72646;DHT22;60687;53.876;10.674;2024-03-02T11:26:57;11.20;93.70
72646;DHT22;60687;53.876;10.674;2024-03-02T11:37:01;11.20;93.40
72646;DHT22;60687;53.876;10.674;2024-03-02T11:47:07;11.30;92.20
72646;DHT22;60687;53.876;10.674;2024-03-02T11:57:12;11.30;92.50
72646;DHT22;60687;53.876;10.674;2024-03-02T12:07:20;11.40;91.40
72646;DHT22;60687;53.876;10.674;2024-03-02T12:17:24;11.60;90.80
72646;DHT22;60687;53.876;10.674;2024-03-02T12:27:28;11.70;90.10
72646;DHT22;60687;53.876;10.674;2024-03-02T12:37:31;11.80;88.70
72646;DHT22;60687;53.876;10.674;2024-03-02T12:47:35;11.80;87.60
72646;DHT22;60687;53.876;10.674;2024-03-02T12:57:39;11.90;86.20
72646;DHT22;60687;53.876;10.674;2024-03-02T13:07:44;12.10;85.70
72646;DHT22;60687;53.876;10.674;2024-03-02T13:17:49;12.30;85.00
72646;DHT22;60687;53.876;10.674;2024-03-02T13:27:54;12.30;80.60
72646;DHT22;60687;53.876;10.674;2024-03-02T13:37:57;12.30;81.10
72646;DHT22;60687;53.876;10.674;2024-03-02T13:48:17;12.30;81.90
72646;DHT22;60687;53.876;10.674;2024-03-02T13:58:19;12.30;80.10
72646;DHT22;60687;53.876;10.674;2024-03-02T14:08:24;12.30;80.40
72646;DHT22;60687;53.876;10.674;2024-03-02T14:18:30;12.30;80.60
72646;DHT22;60687;53.876;10.674;2024-03-02T14:28:38;12.30;80.80
72646;DHT22;60687;53.876;10.674;2024-03-02T14:38:54;12.40;79.80
72646;DHT22;60687;53.876;10.674;2024-03-02T14:48:58;12.30;80.60
72646;DHT22;60687;53.876;10.674;2024-03-02T14:59:02;12.30;81.60
72646;DHT22;60687;53.876;10.674;2024-03-02T15:09:09;12.30;80.70
72646;DHT22;60687;53.876;10.674;2024-03-02T15:19:11;12.30;81.40
72646;DHT22;60687;53.876;10.674;2024-03-02T15:29:17;12.20;81.70
72646;DHT22;60687;53.876;10.674;2024-03-02T15:39:20;12.20;81.50
72646;DHT22;60687;53.876;10.674;2024-03-02T15:49:26;12.20;80.90
72646;DHT22;60687;53.876;10.674;2024-03-02T15:59:33;12.30;82.30
72646;DHT22;60687;53.876;10.674;2024-03-02T16:09:37;12.30;82.10
72646;DHT22;60687;53.876;10.674;2024-03-02T16:19:41;12.20;80.00
72646;DHT22;60687;53.876;10.674;2024-03-02T16:29:45;12.20;81.70
72646;DHT22;60687;53.876;10.674;2024-03-02T16:39:55;12.20;83.20
72646;DHT22;60687;53.876;10.674;2024-03-02T16:49:59;12.10;83.30
72646;DHT22;60687;53.876;10.674;2024-03-02T17:00:01;12.10;82.60
72646;DHT22;60687;53.876;10.674;2024-03-02T17:10:06;12.00;83.50
72646;DHT22;60687;53.876;10.674;2024-03-02T17:20:10;11.90;83.10
72646;DHT22;60687;53.876;10.674;2024-03-02T17:30:16;11.80;83.30
72646;DHT22;60687;53.876;10.674;2024-03-02T17:40:22;11.70;85.40
72646;DHT22;60687;53.876;10.674;2024-03-02T17:50:29;11.60;86.30
72646;DHT22;60687;53.876;10.674;2024-03-02T18:00:35;11.50;87.10
72646;DHT22;60687;53.876;10.674;2024-03-02T18:10:39;11.40;88.10
72646;DHT22;60687;53.876;10.674;2024-03-02T18:20:45;11.20;89.30
72646;DHT22;60687;53.876;10.674;2024-03-02T18:30:49;11.00;90.20
72646;DHT22;60687;53.876;10.674;2024-03-02T18:40:52;10.90;91.20
72646;DHT22;60687;53.876;10.674;2024-03-02T18:50:57;10.80;92.00
72646;DHT22;60687;53.876;10.674;2024-03-02T19:01:01;10.70;92.80
72646;DHT22;60687;53.876;10.674;2024-03-02T19:11:05;10.60;93.20
72646;DHT22;60687;53.876;10.674;2024-03-02T19:21:14;10.50;94.00
72646;DHT22;60687;53.876;10.674;2024-03-02T19:31:18;10.40;94.50
72646;DHT22;60687;53.876;10.674;2024-03-02T19:41:22;10.30;94.80
72646;DHT22;60687;53.876;10.674;2024-03-02T19:51:28;10.20;95.70
72646;DHT22;60687;53.876;10.674;2024-03-02T20:01:30;10.00;96.80
72646;DHT22;60687;53.876;10.674;2024-03-02T20:11:34;9.90;98.00
72646;DHT22;60687;53.876;10.674;2024-03-02T20:21:37;9.90;98.60
72646;DHT22;60687;53.876;10.674;2024-03-02T20:31:43;9.80;98.80
72646;DHT22;60687;53.876;10.674;2024-03-02T20:41:46;9.80;98.80
72646;DHT22;60687;53.876;10.674;2024-03-02T20:52:01;9.70;98.90
72646;DHT22;60687;53.876;10.674;2024-03-02T21:02:05;9.60;99.10
72646;DHT22;60687;53.876;10.674;2024-03-02T21:12:09;9.60;99.20
72646;DHT22;60687;53.876;10.674;2024-03-02T21:22:15;9.50;99.60
72646;DHT22;60687;53.876;10.674;2024-03-02T21:32:19;9.50;99.70
72646;DHT22;60687;53.876;10.674;2024-03-02T21:42:21;9.40;99.90
72646;DHT22;60687;53.876;10.674;2024-03-02T21:52:25;9.30;99.90
72646;DHT22;60687;53.876;10.674;2024-03-02T22:02:27;9.30;99.90
72646;DHT22;60687;53.876;10.674;2024-03-02T22:12:32;9.20;99.70
72646;DHT22;60687;53.876;10.674;2024-03-02T22:22:35;9.20;99.90
72646;DHT22;60687;53.876;10.674;2024-03-02T22:32:41;9.00;99.90
72646;DHT22;60687;53.876;10.674;2024-03-02T22:42:45;9.00;99.90
72646;DHT22;60687;53.876;10.674;2024-03-02T22:52:49;9.00;99.90
72646;DHT22;60687;53.876;10.674;2024-03-02T23:02:52;8.90;99.90
72646;DHT22;60687;53.876;10.674;2024-03-02T23:12:56;8.80;99.90
72646;DHT22;60687;53.876;10.674;2024-03-02T23:22:58;8.80;99.90
72646;DHT22;60687;53.876;10.674;2024-03-02T23:33:07;8.80;99.90
72646;DHT22;60687;53.876;10.674;2024-03-02T23:43:09;8.70;99.90
72646;DHT22;60687;53.876;10.674;2024-03-02T23:53:16;8.60;99.90
